Time;durP1;ratioP1;P1;durP2;ratioP2;P2;SDS_P1;SDS_P2;PMS_P1;PMS_P2;Temp;Humidity;BMP_temperature;BMP_pressure;BME280_temperature;BME280_humidity;BME280_pressure;Samples;Min_cycle;Max_cycle;Signal;HPM_P1;HPM_P2
2021/04/10 00:00:39;;;;;;;26.60;17.30;;;128.40;1817.60;;;;;;4988157;28;20035;-82
2021/04/10 00:03:11;;;;;;;23.67;14.93;;;128.40;1817.60;;;;;;4984916;28;20022;-87
2021/04/10 00:05:37;;;;;;;27.52;15.00;;;128.40;1817.60;;;;;;4984199;28;20499;-82
2021/04/10 00:08:03;;;;;;;28.47;13.97;;;128.30;1817.60;;;;;;4974505;28;20058;-82
2021/04/10 00:10:30;;;;;;;24.10;12.60;;;128.20;1817.60;;;;;;4974212;28;20057;-84
2021/04/10 00:12:57;;;;;;;19.17;13.07;;;128.20;1843.20;;;;;;4974324;28;20117;-83
2021/04/10 00:15:23;;;;;;;23.60;13.57;;;128.20;1843.20;;;;;;4975580;28;20073;-83
2021/04/10 00:17:50;;;;;;;24.97;14.30;;;128.20;1843.20;;;;;;4974527;28;20030;-84
2021/04/10 00:20:20;;;;;;;34.77;17.67;;;128.10;1843.20;;;;;;4974417;28;20030;-83
2021/04/10 00:22:47;;;;;;;36.03;19.33;;;128.10;1817.60;;;;;;4973987;28;20030;-84
2021/04/10 00:25:13;;;;;;;37.03;20.00;;;128.10;1843.20;;;;;;4973511;28;20031;-87
2021/04/10 00:27:39;;;;;;;63.07;31.00;;;128.30;1843.20;;;;;;4973995;28;20037;-89
2021/04/10 00:30:07;;;;;;;68.27;35.23;;;128.20;1843.20;;;;;;4974353;28;20031;-84
2021/04/10 00:32:34;;;;;;;62.87;30.70;;;128.10;1868.80;;;;;;4973495;28;20486;-84
2021/04/10 00:35:01;;;;;;;70.27;36.67;;;128.10;1843.20;;;;;;4973853;28;20027;-85
2021/04/10 00:37:27;;;;;;;59.40;32.83;;;128.10;1843.20;;;;;;4974455;28;20035;-84
2021/04/10 00:39:53;;;;;;;59.47;31.47;;;128.10;1843.20;;;;;;4977920;28;20027;-86
2021/04/10 00:42:19;;;;;;;75.00;39.47;;;128.00;1817.60;;;;;;4985692;28;20031;-88
2021/04/10 00:44:45;;;;;;;65.47;37.73;;;103.30;1843.20;;;;;;4988686;28;20081;-86
2021/04/10 00:47:10;;;;;;;65.53;37.77;;;128.00;1868.80;;;;;;4986014;28;20018;-82
2021/04/10 00:49:36;;;;;;;77.30;41.97;;;128.00;1868.80;;;;;;4979882;28;20042;-85
2021/04/10 00:52:03;;;;;;;79.83;43.47;;;103.30;1817.60;;;;;;4974286;28;20059;-83
2021/04/10 00:54:29;;;;;;;65.17;37.00;;;128.00;1868.80;;;;;;4974403;28;20121;-87
2021/04/10 00:56:55;;;;;;;65.20;35.97;;;128.00;1868.80;;;;;;4978396;28;20070;-90
2021/04/10 00:59:21;;;;;;;67.30;36.23;;;128.00;1868.80;;;;;;4978032;28;20038;-88
2021/04/10 01:01:47;;;;;;;55.17;32.50;;;103.30;1868.80;;;;;;4977883;28;20042;-86
2021/04/10 01:04:13;;;;;;;53.27;28.10;;;128.00;1843.20;;;;;;4977683;28;20130;-88
2021/04/10 01:06:39;;;;;;;62.23;30.43;;;103.30;1843.20;;;;;;4977979;28;20467;-89
2021/04/10 01:09:05;;;;;;;52.83;28.30;;;103.30;1868.80;;;;;;4977642;28;20033;-82
2021/04/10 01:11:54;;;;;;;50.60;30.17;;;103.20;1843.20;;;;;;4978197;28;20039;-89
2021/04/10 01:15:05;;;;;;;60.80;36.30;;;103.20;1843.20;;;;;;4977414;28;20023;-84
2021/04/10 01:17:37;;;;;;;56.47;32.83;;;102.90;1894.40;;;;;;4974670;28;20597;-84
2021/04/10 01:20:27;;;;;;;54.87;30.67;;;102.90;1894.40;;;;;;4977540;28;20041;-84
2021/04/10 01:23:17;;;;;;;57.60;29.77;;;103.00;1868.80;;;;;;4977615;28;20023;-85
2021/04/10 01:25:55;;;;;;;54.10;30.33;;;103.00;1843.20;;;;;;4986983;28;20090;-83
2021/04/10 01:29:00;;;;;;;50.37;29.07;;;103.10;1868.80;;;;;;4992505;28;20027;-85
2021/04/10 01:31:31;;;;;;;60.83;32.37;;;103.10;1843.20;;;;;;5000930;28;20023;-90
2021/04/10 01:34:05;;;;;;;55.43;30.07;;;103.00;1868.80;;;;;;5000080;28;20018;-83
2021/04/10 01:36:37;;;;;;;55.90;32.03;;;103.10;1868.80;;;;;;4988839;28;20475;-85
2021/04/10 01:39:07;;;;;;;58.63;36.03;;;103.10;1868.80;;;;;;4981995;28;20058;-85
2021/04/10 01:41:35;;;;;;;58.80;29.70;;;103.00;1868.80;;;;;;4977750;28;20110;-84
2021/04/10 01:44:02;;;;;;;60.87;35.00;;;103.00;1868.80;;;;;;4978848;28;20026;-90
2021/04/10 01:46:31;;;;;;;68.67;41.23;;;103.00;1894.40;;;;;;4977482;28;20113;-89
2021/04/10 01:48:57;;;;;;;75.53;43.87;;;102.90;1920.00;;;;;;4978534;28;20064;-87
2021/04/10 01:51:23;;;;;;;57.83;34.60;;;102.50;1971.20;;;;;;4977019;28;20073;-89
2021/04/10 01:53:50;;;;;;;75.27;38.30;;;102.60;1945.60;;;;;;4960848;28;20035;-84
2021/04/10 01:56:19;;;;;;;66.50;37.83;;;102.70;1920.00;;;;;;4961050;28;20146;-84
2021/04/10 01:58:45;;;;;;;74.27;41.03;;;102.80;1920.00;;;;;;4960917;28;20054;-86
2021/04/10 02:01:14;;;;;;;87.20;46.97;;;102.80;1868.80;;;;;;4960076;28;20069;-89
2021/04/10 02:03:46;;;;;;;81.17;42.93;;;102.90;1894.40;;;;;;4960669;28;20074;-90
2021/04/10 02:06:13;;;;;;;73.07;38.67;;;102.90;1920.00;;;;;;4977722;28;20030;-84
2021/04/10 02:08:44;;;;;;;79.53;43.67;;;102.90;1868.80;;;;;;4959272;28;20038;-87
2021/04/10 02:11:12;;;;;;;81.27;43.53;;;102.80;1894.40;;;;;;4960490;28;20030;-85
2021/04/10 02:13:38;;;;;;;83.73;44.97;;;102.90;1894.40;;;;;;4960844;28;20030;-85
2021/04/10 02:16:06;;;;;;;84.10;44.60;;;102.80;1894.40;;;;;;4960671;28;20041;-84
2021/04/10 02:18:33;;;;;;;84.73;42.63;;;102.80;1894.40;;;;;;4967350;28;20470;-90
2021/04/10 02:21:07;;;;;;;145.63;68.17;;;102.70;1894.40;;;;;;4965808;28;20078;-90
2021/04/10 02:23:41;;;;;;;141.93;63.70;;;102.80;1868.80;;;;;;4963777;28;20073;-85
2021/04/10 02:26:08;;;;;;;70.00;34.87;;;102.70;1920.00;;;;;;4960410;28;20031;-88
2021/04/10 02:28:35;;;;;;;76.30;35.23;;;102.70;1920.00;;;;;;4960333;28;20126;-85
2021/04/10 02:31:01;;;;;;;45.67;27.87;;;102.70;1920.00;;;;;;4960355;28;20034;-89
2021/04/10 02:33:41;;;;;;;55.73;27.83;;;102.70;1920.00;;;;;;4959692;28;20118;-89
2021/04/10 02:36:11;;;;;;;47.60;24.37;;;102.70;1920.00;;;;;;4961275;28;20054;-86
2021/04/10 02:38:38;;;;;;;47.47;25.43;;;102.70;1920.00;;;;;;4963203;28;20047;-85
2021/04/10 02:41:24;;;;;;;37.80;21.83;;;102.70;1920.00;;;;;;4962883;28;20027;-85
2021/04/10 02:44:01;;;;;;;38.63;21.63;;;102.70;1894.40;;;;;;4962419;28;20022;-84
2021/04/10 02:46:30;;;;;;;37.00;21.47;;;102.60;1920.00;;;;;;4962603;28;20039;-86
2021/04/10 02:49:02;;;;;;;44.00;23.70;;;102.70;1894.40;;;;;;4962068;28;20467;-85
2021/04/10 02:51:57;;;;;;;35.95;20.50;;;102.60;1894.40;;;;;;4964562;28;20042;-85
2021/04/10 02:54:27;;;;;;;31.80;17.90;;;102.60;1920.00;;;;;;4905658;29;20052;-93
2021/04/10 02:57:08;;;;;;;30.90;15.87;;;102.50;1945.60;;;;;;4905877;29;20040;-83
2021/04/10 02:59:38;;;;;;;24.23;14.87;;;102.50;1945.60;;;;;;4902593;29;20152;-92
2021/04/10 03:02:05;;;;;;;25.53;15.20;;;102.50;1945.60;;;;;;4901959;29;20444;-92
2021/04/10 03:04:31;;;;;;;32.57;18.97;;;102.50;1920.00;;;;;;4901833;29;20025;-85
2021/04/10 03:06:58;;;;;;;30.17;15.87;;;102.50;1945.60;;;;;;4901736;29;20144;-92
2021/04/10 03:09:25;;;;;;;28.83;18.03;;;102.50;1971.20;;;;;;4901732;29;20024;-84
2021/04/10 03:11:51;;;;;;;50.80;28.50;;;102.50;1945.60;;;;;;4901856;29;20048;-91
2021/04/10 03:14:17;;;;;;;31.60;18.43;;;102.50;1945.60;;;;;;4901593;29;20123;-92
2021/04/10 03:16:44;;;;;;;40.73;26.23;;;102.40;1945.60;;;;;;4906000;29;20048;-92
2021/04/10 03:19:10;;;;;;;39.13;22.23;;;102.40;1971.20;;;;;;4903820;29;20040;-91
2021/04/10 03:21:39;;;;;;;47.23;27.10;;;77.50;2022.40;;;;;;4907791;29;20036;-91
2021/04/10 03:24:06;;;;;;;53.67;30.17;;;77.40;2022.40;;;;;;4913924;29;20084;-92
2021/04/10 03:26:32;;;;;;;53.00;28.77;;;77.40;2048.00;;;;;;4921273;29;20040;-84
2021/04/10 03:28:58;;;;;;;46.53;25.43;;;77.40;2048.00;;;;;;4920913;29;20055;-88
2021/04/10 03:31:24;;;;;;;51.50;26.07;;;77.50;1996.80;;;;;;4950358;28;20027;-90
2021/04/10 03:33:51;;;;;;;43.57;27.20;;;77.70;1996.80;;;;;;4980571;28;20027;-83
2021/04/10 03:36:18;;;;;;;59.53;29.03;;;77.60;1996.80;;;;;;4979815;28;20054;-85
2021/04/10 03:38:45;;;;;;;57.20;28.97;;;77.70;1971.20;;;;;;4981267;28;20058;-89
2021/04/10 03:41:11;;;;;;;58.57;29.50;;;77.70;1971.20;;;;;;4982198;28;20045;-91
2021/04/10 03:43:37;;;;;;;48.93;28.90;;;77.70;1996.80;;;;;;4982137;28;20055;-86
2021/04/10 03:46:03;;;;;;;57.57;33.13;;;77.70;1971.20;;;;;;4968767;28;20125;-96
2021/04/10 03:48:32;;;;;;;66.43;38.67;;;77.70;1945.60;;;;;;4964926;28;20031;-96
2021/04/10 03:51:00;;;;;;;59.67;33.57;;;77.70;1971.20;;;;;;4962766;28;20034;-94
2021/04/10 03:53:26;;;;;;;53.30;32.07;;;77.70;1971.20;;;;;;4976381;28;20050;-94
2021/04/10 03:55:52;;;;;;;54.77;33.47;;;77.70;1920.00;;;;;;4994033;28;20038;-85
2021/04/10 03:58:18;;;;;;;47.60;28.53;;;77.60;1971.20;;;;;;4990387;28;20031;-85
2021/04/10 04:00:44;;;;;;;53.30;26.37;;;77.60;1971.20;;;;;;4991227;28;20042;-85
2021/04/10 04:03:09;;;;;;;42.43;24.27;;;77.60;1971.20;;;;;;4994407;28;20035;-87
2021/04/10 04:05:35;;;;;;;48.70;27.53;;;77.60;1920.00;;;;;;4995264;28;20019;-87
2021/04/10 04:08:01;;;;;;;42.83;23.70;;;77.60;1945.60;;;;;;4993395;28;20026;-84
2021/04/10 04:10:27;;;;;;;45.53;24.63;;;77.50;1996.80;;;;;;4984870;28;20031;-89
2021/04/10 04:12:53;;;;;;;37.83;20.83;;;77.50;1971.20;;;;;;4989593;28;20050;-88
2021/04/10 04:15:18;;;;;;;44.20;22.73;;;77.50;1971.20;;;;;;4989207;28;20111;-91
2021/04/10 04:17:44;;;;;;;34.80;22.20;;;77.50;1971.20;;;;;;4987092;28;20038;-86
2021/04/10 04:20:11;;;;;;;35.13;22.37;;;77.50;1945.60;;;;;;4989774;28;20035;-88
2021/04/10 04:22:36;;;;;;;48.10;25.73;;;77.40;1996.80;;;;;;4989706;28;20045;-83
2021/04/10 04:25:03;;;;;;;47.90;26.03;;;77.40;1971.20;;;;;;4998413;28;20051;-85
2021/04/10 04:27:29;;;;;;;38.67;23.43;;;77.20;1945.60;;;;;;4998377;28;20023;-85
2021/04/10 04:29:54;;;;;;;38.47;22.43;;;77.20;1971.20;;;;;;4998232;28;20023;-84
2021/04/10 04:32:24;;;;;;;26.40;17.40;;;77.20;1971.20;;;;;;4985526;28;20105;-91
2021/04/10 04:34:50;;;;;;;30.40;16.83;;;77.20;1971.20;;;;;;4979693;28;20023;-91
2021/04/10 04:37:16;;;;;;;26.53;14.50;;;77.20;1971.20;;;;;;4979731;28;20081;-88
2021/04/10 04:39:42;;;;;;;28.00;15.10;;;77.20;1945.60;;;;;;4979169;28;20038;-92
2021/04/10 04:42:07;;;;;;;36.53;21.60;;;77.20;1996.80;;;;;;4979261;28;20034;-87
2021/04/10 04:44:33;;;;;;;50.80;27.13;;;77.00;2048.00;;;;;;4978661;28;20069;-90
2021/04/10 04:46:59;;;;;;;67.43;36.27;;;76.90;2099.20;;;;;;4978824;28;20151;-90
2021/04/10 04:49:25;;;;;;;74.93;41.47;;;76.90;2099.20;;;;;;4978517;28;20031;-90
2021/04/10 04:51:54;;;;;;;141.47;64.73;;;77.00;2048.00;;;;;;4979461;28;20113;-83
2021/04/10 04:54:21;;;;;;;108.77;57.20;;;77.20;2073.60;;;;;;4979413;28;20027;-89
2021/04/10 04:56:46;;;;;;;94.47;49.40;;;77.30;2099.20;;;;;;4979775;28;20042;-90
2021/04/10 04:59:12;;;;;;;72.63;42.00;;;77.20;2099.20;;;;;;4978914;28;20026;-91
2021/04/10 05:01:38;;;;;;;55.53;30.60;;;77.30;2048.00;;;;;;4978644;28;20034;-89
2021/04/10 05:04:04;;;;;;;58.37;33.53;;;77.30;2073.60;;;;;;4978800;28;20117;-89
2021/04/10 05:06:29;;;;;;;48.03;27.80;;;77.40;2048.00;;;;;;4979266;28;20104;-90
2021/04/10 05:08:55;;;;;;;24.97;13.80;;;77.40;2022.40;;;;;;4980086;28;20059;-90
2021/04/10 05:11:21;;;;;;;42.33;22.73;;;77.50;1971.20;;;;;;4979417;28;20452;-83
2021/04/10 05:13:47;;;;;;;40.10;21.93;;;77.60;1945.60;;;;;;4978242;28;20062;-84
2021/04/10 05:16:12;;;;;;;38.63;23.07;;;77.60;1971.20;;;;;;4978316;28;20058;-92
2021/04/10 05:18:38;;;;;;;39.40;22.37;;;77.60;1945.60;;;;;;4979417;28;20030;-91
2021/04/10 05:21:04;;;;;;;34.63;18.50;;;77.60;1971.20;;;;;;4979811;28;20115;-89
2021/04/10 05:23:30;;;;;;;28.53;16.33;;;77.60;1945.60;;;;;;4978981;28;20113;-84
2021/04/10 05:25:56;;;;;;;26.30;14.13;;;77.50;1945.60;;;;;;4979796;28;20399;-92
2021/04/10 05:28:21;;;;;;;36.33;22.33;;;77.60;1920.00;;;;;;4980220;28;20023;-92
2021/04/10 05:30:48;;;;;;;28.73;17.77;;;77.70;1894.40;;;;;;4979794;28;20050;-92
2021/04/10 05:33:13;;;;;;;29.43;16.70;;;77.70;1894.40;;;;;;4980187;28;20168;-91
2021/04/10 05:35:39;;;;;;;27.10;13.80;;;102.40;1894.40;;;;;;4979821;28;20030;-92
2021/04/10 05:38:05;;;;;;;25.33;14.93;;;102.50;1868.80;;;;;;4977561;28;20043;-91
2021/04/10 05:40:31;;;;;;;29.17;18.57;;;102.60;1868.80;;;;;;4961770;28;20039;-88
2021/04/10 05:42:57;;;;;;;25.07;15.70;;;102.60;1843.20;;;;;;4977053;28;20380;-84
2021/04/10 05:45:25;;;;;;;27.23;15.83;;;102.70;1843.20;;;;;;4979593;28;20037;-85
2021/04/10 05:47:50;;;;;;;28.13;16.90;;;102.70;1843.20;;;;;;4978036;28;20077;-92
2021/04/10 05:50:16;;;;;;;33.03;17.07;;;102.80;1868.80;;;;;;4978211;28;20483;-90
2021/04/10 05:52:42;;;;;;;29.53;16.57;;;102.90;1817.60;;;;;;4978045;28;20043;-88
2021/04/10 05:55:09;;;;;;;29.13;17.03;;;103.00;1792.00;;;;;;4977512;28;20033;-91
2021/04/10 05:57:35;;;;;;;44.63;21.50;;;103.10;1792.00;;;;;;4977826;28;20497;-89
2021/04/10 06:00:01;;;;;;;34.67;17.93;;;103.10;1792.00;;;;;;4977304;28;20022;-89
2021/04/10 06:02:27;;;;;;;31.57;19.20;;;103.20;1766.40;;;;;;4977791;28;20043;-92
2021/04/10 06:04:52;;;;;;;28.70;18.83;;;103.20;1766.40;;;;;;4978807;28;20026;-91
2021/04/10 06:07:18;;;;;;;27.10;17.33;;;103.30;1766.40;;;;;;4977974;28;20031;-92
2021/04/10 06:09:44;;;;;;;31.07;17.57;;;128.00;1766.40;;;;;;4977756;28;20023;-90
2021/04/10 06:12:11;;;;;;;31.20;18.97;;;128.10;1766.40;;;;;;4971066;28;20122;-90
2021/04/10 06:14:36;;;;;;;31.57;19.80;;;128.20;1792.00;;;;;;4977304;28;20046;-90
2021/04/10 06:17:03;;;;;;;34.67;23.37;;;128.30;1766.40;;;;;;4977838;28;20158;-89
2021/04/10 06:19:28;;;;;;;47.23;23.63;;;128.30;1766.40;;;;;;4986815;28;20031;-88
2021/04/10 06:21:54;;;;;;;49.40;26.27;;;128.40;1766.40;;;;;;4987596;28;20036;-87
2021/04/10 06:24:20;;;;;;;58.73;35.23;;;128.40;1766.40;;;;;;4993782;28;20017;-88
2021/04/10 06:26:46;;;;;;;53.13;32.00;;;128.60;1766.40;;;;;;4986967;28;20034;-86
2021/04/10 06:29:12;;;;;;;59.33;32.37;;;128.70;1766.40;;;;;;4979367;28;20035;-89
2021/04/10 06:31:39;;;;;;;60.23;31.60;;;128.80;1792.00;;;;;;4988107;28;20018;-84
2021/04/10 06:34:06;;;;;;;48.93;27.53;;;128.90;1766.40;;;;;;4994329;28;20035;-85
2021/04/10 06:36:32;;;;;;;44.63;27.37;;;153.60;1740.80;;;;;;4981519;28;20030;-82
2021/04/10 06:38:58;;;;;;;41.57;26.30;;;153.70;1715.20;;;;;;4987731;28;20047;-82
2021/04/10 06:41:24;;;;;;;51.00;28.20;;;153.90;1689.60;;;;;;4978868;28;20037;-81
2021/04/10 06:43:50;;;;;;;39.27;23.93;;;154.00;1715.20;;;;;;4979548;28;20046;-82
2021/04/10 06:46:16;;;;;;;43.50;27.47;;;154.20;1664.00;;;;;;4982688;28;20042;-85
2021/04/10 06:48:44;;;;;;;38.37;24.73;;;154.30;1689.60;;;;;;4981501;28;20035;-83
2021/04/10 06:51:12;;;;;;;40.93;24.80;;;154.30;1664.00;;;;;;4979925;28;20042;-83
2021/04/10 06:53:47;;;;;;;40.50;22.80;;;154.40;1689.60;;;;;;4974681;28;20081;-83
2021/04/10 06:56:32;;;;;;;36.93;19.87;;;154.50;1715.20;;;;;;4970002;28;20078;-84
2021/04/10 06:59:28;;;;;;;44.20;23.90;;;179.20;1689.60;;;;;;4970613;28;20035;-84
2021/04/10 07:01:54;;;;;;;38.77;22.83;;;179.30;1664.00;;;;;;4976645;28;20038;-88
2021/04/10 07:04:20;;;;;;;31.53;22.87;;;179.40;1689.60;;;;;;4976622;28;20034;-90
2021/04/10 07:06:46;;;;;;;36.00;22.13;;;179.60;1664.00;;;;;;4977232;28;20106;-88
2021/04/10 07:09:13;;;;;;;35.03;24.20;;;179.70;1612.80;;;;;;4976232;28;20459;-90
2021/04/10 07:11:40;;;;;;;37.30;22.83;;;179.80;1587.20;;;;;;4976737;28;20050;-89
2021/04/10 07:14:06;;;;;;;39.27;23.40;;;180.00;1587.20;;;;;;4976426;28;20043;-91
2021/04/10 07:16:39;;;;;;;32.87;22.40;;;180.10;1587.20;;;;;;4975583;28;20039;-88
2021/04/10 07:19:12;;;;;;;46.60;22.73;;;204.90;1638.40;;;;;;4978259;28;20022;-86
2021/04/10 07:21:38;;;;;;;;;;;205.00;1561.60;;;;;;4980978;28;20035;-85
2021/04/10 07:24:04;;;;;;;33.70;20.93;;;205.20;1484.80;;;;;;4996175;28;19928;-83
2021/04/10 07:26:49;;;;;;;41.27;22.40;;;205.30;1536.00;;;;;;4987659;28;20038;-81
2021/04/10 07:29:43;;;;;;;44.63;26.40;;;205.60;1484.80;;;;;;5004036;28;20026;-83
2021/04/10 07:32:34;;;;;;;58.43;30.70;;;230.40;1433.60;;;;;;4974564;28;20031;-82
2021/04/10 07:35:11;;;;;;;46.00;25.65;;;230.50;1459.20;;;;;;4973386;28;20023;-82
2021/04/10 07:37:42;;;;;;;43.73;23.47;;;230.70;1408.00;;;;;;4972617;28;20070;-87
2021/04/10 07:40:13;;;;;;;37.00;21.60;;;230.90;1382.40;;;;;;4970981;28;20059;-82
2021/04/10 07:42:43;;;;;;;27.90;18.15;;;231.10;1484.80;;;;;;4971430;28;20467;-81
2021/04/10 07:45:22;;;;;;;37.22;21.20;;;231.10;1331.20;;;;;;4972594;28;20061;-82
2021/04/10 07:47:48;;;;;;;37.90;17.40;;;256.00;1356.80;;;;;;4967922;28;20122;-81
2021/04/10 07:50:20;;;;;;;22.40;14.80;;;256.10;1382.40;;;;;;4971709;28;20026;-84
2021/04/10 07:52:46;;;;;;;29.60;15.73;;;256.30;1331.20;;;;;;4972624;28;20539;-84
2021/04/10 07:55:35;;;;;;;22.95;13.95;;;256.40;1331.20;;;;;;4971288;28;20019;-84
2021/04/10 07:58:37;;;;;;;18.13;11.18;;;256.60;1356.80;;;;;;4971054;28;20030;-82
2021/04/10 08:01:04;;;;;;;21.73;12.75;;;256.80;1331.20;;;;;;4918665;29;20027;-85
2021/04/10 08:03:34;;;;;;;17.58;11.32;;;281.60;1331.20;;;;;;4935553;29;20039;-85
2021/04/10 08:06:05;;;;;;;21.77;14.77;;;281.80;1331.20;;;;;;4936449;29;20023;-81
2021/04/10 08:08:51;;;;;;;29.13;17.20;;;282.40;1561.60;;;;;;4919341;29;20039;-91
2021/04/10 08:11:33;;;;;;;18.05;11.85;;;307.70;1408.00;;;;;;4922568;29;20042;-87
2021/04/10 08:14:02;;;;;;;21.48;12.07;;;332.90;1356.80;;;;;;4919682;29;20112;-82
2021/04/10 08:16:28;;;;;;;20.73;12.82;;;333.30;1510.40;;;;;;4917525;29;20036;-84
2021/04/10 08:18:57;;;;;;;17.40;12.55;;;333.40;1433.60;;;;;;4915572;29;20032;-86
2021/04/10 08:21:35;;;;;;;19.38;11.57;;;333.00;1356.80;;;;;;4929095;29;20040;-84
2021/04/10 08:24:20;;;;;;;15.85;11.05;;;333.00;1356.80;;;;;;4918003;29;20071;-82
2021/04/10 08:26:46;;;;;;;17.55;10.02;;;332.90;1254.40;;;;;;4917904;29;20024;-87
2021/04/10 08:29:12;;;;;;;14.02;8.05;;;333.00;1228.80;;;;;;4919177;29;20043;-84
2021/04/10 08:31:38;;;;;;;14.10;7.70;;;333.10;1126.40;;;;;;4918285;29;20047;-88
2021/04/10 08:34:04;;;;;;;18.67;9.25;;;333.20;1126.40;;;;;;4923289;28;20036;-84
2021/04/10 08:36:31;;;;;;;18.67;9.52;;;333.20;1152.00;;;;;;4973305;28;20368;-83
2021/04/10 08:38:58;;;;;;;13.98;8.50;;;333.30;1254.40;;;;;;4973982;28;20046;-87
2021/04/10 08:41:29;;;;;;;15.32;7.45;;;333.60;1203.20;;;;;;4974760;28;20125;-87
2021/04/10 08:43:57;;;;;;;18.85;10.70;;;333.70;1203.20;;;;;;4973329;28;20105;-86
2021/04/10 08:46:23;;;;;;;17.20;9.32;;;358.80;1177.60;;;;;;4972924;28;20035;-86
2021/04/10 08:48:52;;;;;;;47.67;31.75;;;358.70;1254.40;;;;;;4968141;28;20085;-86
2021/04/10 08:51:18;;;;;;;34.08;20.80;;;359.10;1228.80;;;;;;4970419;28;20045;-85
2021/04/10 08:53:50;;;;;;;28.35;16.60;;;359.30;1254.40;;;;;;4954226;28;20124;-88
2021/04/10 08:56:22;;;;;;;14.25;8.98;;;384.10;1177.60;;;;;;4963257;28;20035;-84
2021/04/10 08:58:49;;;;;;;26.80;13.00;;;359.20;1152.00;;;;;;4952734;28;20035;-87
2021/04/10 09:01:30;;;;;;;19.77;10.48;;;384.20;1203.20;;;;;;4957337;28;20030;-85
2021/04/10 09:03:56;;;;;;;24.75;9.75;;;384.30;1152.00;;;;;;4958177;28;20049;-87
2021/04/10 09:06:31;;;;;;;19.25;9.05;;;384.50;1203.20;;;;;;4957143;28;20066;-86
2021/04/10 09:09:14;;;;;;;12.63;8.18;;;384.80;1100.80;;;;;;4908206;29;20501;-89
2021/04/10 09:11:45;;;;;;;12.63;8.20;;;384.80;1075.20;;;;;;4883893;29;20048;-91
2021/04/10 09:14:13;;;;;;;12.20;6.93;;;409.70;1152.00;;;;;;4882147;29;20056;-88
2021/04/10 09:16:51;;;;;;;16.10;8.82;;;409.90;1126.40;;;;;;4881738;29;20032;-86
2021/04/10 09:19:18;;;;;;;16.98;8.15;;;410.10;1100.80;;;;;;4885260;29;20051;-87
2021/04/10 09:21:52;;;;;;;16.15;7.63;;;410.40;1126.40;;;;;;4900909;29;20337;-90
2021/04/10 09:24:22;;;;;;;18.48;8.10;;;410.30;1100.80;;;;;;4885680;29;20040;-89
2021/04/10 09:27:05;;;;;;;12.93;7.75;;;410.00;998.40;;;;;;4885321;29;20102;-88
2021/04/10 09:29:50;;;;;;;10.57;6.63;;;410.00;1024.00;;;;;;4885528;29;20028;-93
2021/04/10 09:32:38;;;;;;;11.48;6.72;;;410.10;972.80;;;;;;4903839;29;20037;-90
2021/04/10 09:35:15;;;;;;;11.20;7.05;;;410.50;1049.60;;;;;;4908333;29;20021;-92
2021/04/10 09:37:44;;;;;;;15.68;5.60;;;410.40;947.20;;;;;;4907817;29;20009;-86
2021/04/10 09:40:19;;;;;;;12.15;5.55;;;435.30;921.60;;;;;;4906989;29;20048;-88
2021/04/10 09:42:52;;;;;;;13.25;7.38;;;410.50;896.00;;;;;;4905236;29;20083;-86
2021/04/10 09:45:19;;;;;;;17.23;6.43;;;435.30;947.20;;;;;;4913431;29;20078;-90
2021/04/10 09:50:22;;;;;;;9.02;5.13;;;435.70;896.00;;;;;;4960877;29;20171;-90
2021/04/10 09:53:02;;;;;;;10.57;5.43;;;436.10;844.80;;;;;;4950892;29;20145;-86
2021/04/10 09:55:31;;;;;;;12.48;6.35;;;461.20;819.20;;;;;;4959069;29;20116;-91
2021/04/10 09:58:02;;;;;;;14.98;5.70;;;461.00;819.20;;;;;;4961253;29;20059;-89
2021/04/10 10:00:28;;;;;;;12.70;5.22;;;436.00;768.00;;;;;;4991959;28;20011;-91
2021/04/10 10:02:55;;;;;;;12.57;5.70;;;436.00;793.60;;;;;;4980524;28;20037;-87
2021/04/10 10:05:21;;;;;;;12.32;5.57;;;460.90;870.40;;;;;;4979487;28;20120;-87
2021/04/10 10:07:53;;;;;;;8.43;5.65;;;435.60;768.00;;;;;;4979221;28;20062;-88
2021/04/10 10:10:42;;;;;;;10.17;5.07;;;436.10;768.00;;;;;;4979861;29;20034;-90
2021/04/10 10:13:23;;;;;;;12.02;5.22;;;460.90;819.20;;;;;;4977007;28;20027;-85
2021/04/10 10:15:50;;;;;;;15.25;5.57;;;461.20;819.20;;;;;;4971889;28;20042;-84
2021/04/10 10:18:17;;;;;;;12.63;5.20;;;461.60;870.40;;;;;;4968810;29;20030;-87
2021/04/10 10:21:06;;;;;;;10.07;4.32;;;461.60;793.60;;;;;;4962569;29;20073;-91
2021/04/10 10:23:33;;;;;;;11.93;4.80;;;486.40;768.00;;;;;;4965140;29;20062;-87
2021/04/10 10:26:03;;;;;;;7.57;5.10;;;461.70;768.00;;;;;;4960492;29;20487;-94
2021/04/10 10:28:29;;;;;;;12.05;5.13;;;461.60;819.20;;;;;;4961355;28;20058;-87
2021/04/10 10:30:59;;;;;;;10.65;5.63;;;461.50;870.40;;;;;;4959851;29;20087;-94
2021/04/10 10:33:25;;;;;;;16.02;7.88;;;486.50;819.20;;;;;;4963027;29;20039;-85
2021/04/10 10:35:55;;;;;;;11.90;5.93;;;486.40;844.80;;;;;;4966011;28;20037;-85
2021/04/10 10:38:35;;;;;;;12.98;6.93;;;486.50;819.20;;;;;;4968802;28;20130;-89
2021/04/10 10:41:03;;;;;;;6.68;4.63;;;486.60;819.20;;;;;;4968202;29;20034;-88
2021/04/10 10:43:29;;;;;;;12.93;7.85;;;486.70;793.60;;;;;;4967121;28;20039;-87
2021/04/10 10:45:59;;;;;;;8.00;4.72;;;486.90;819.20;;;;;;4962126;29;20065;-89
2021/04/10 10:48:34;;;;;;;9.20;4.80;;;486.70;742.40;;;;;;4949046;29;20035;-86
2021/04/10 10:51:00;;;;;;;11.00;5.88;;;486.60;742.40;;;;;;4963340;29;20031;-88
2021/04/10 10:53:47;;;;;;;9.77;5.20;;;487.20;844.80;;;;;;4947301;29;20533;-89
2021/04/10 10:56:29;;;;;;;7.88;4.65;;;512.20;819.20;;;;;;4936155;29;20032;-86
2021/04/10 10:58:57;;;;;;;9.48;4.80;;;512.40;793.60;;;;;;4932013;29;20024;-88
2021/04/10 11:01:33;;;;;;;10.25;5.40;;;512.40;716.80;;;;;;4929507;29;20023;-93
2021/04/10 11:04:18;;;;;;;10.23;5.38;;;487.30;768.00;;;;;;4929083;29;20094;-87
2021/04/10 11:06:59;;;;;;;16.38;5.65;;;486.70;768.00;;;;;;4940685;29;20027;-86
2021/04/10 11:09:27;;;;;;;7.22;4.15;;;487.20;819.20;;;;;;4940466;29;20050;-86
2021/04/10 11:12:10;;;;;;;11.20;4.13;;;512.40;819.20;;;;;;4941290;29;20071;-90
2021/04/10 11:14:41;;;;;;;;;;;512.90;742.40;;;;;;4940518;29;20045;-87
2021/04/10 11:17:42;;;;;;;10.43;5.28;;;512.70;819.20;;;;;;4940653;29;19911;-87
2021/04/10 11:20:31;;;;;;;11.27;5.43;;;537.70;819.20;;;;;;4940660;29;20459;-88
2021/04/10 11:23:03;;;;;;;10.32;4.53;;;538.20;768.00;;;;;;4937479;29;20114;-89
2021/04/10 11:25:53;;;;;;;8.93;4.22;;;538.50;793.60;;;;;;4921568;29;20037;-88
2021/04/10 11:28:45;;;;;;;9.07;4.80;;;563.20;819.20;;;;;;4922028;29;20050;-91
2021/04/10 11:31:14;;;;;;;10.07;5.43;;;537.80;716.80;;;;;;4923615;29;20094;-89
2021/04/10 11:33:55;;;;;;;7.93;5.30;;;512.80;691.20;;;;;;4929315;29;20023;-89
2021/04/10 11:37:05;;;;;;;11.35;6.55;;;512.00;742.40;;;;;;4944158;29;20514;-86
2021/04/10 11:40:23;;;;;;;15.60;7.70;;;512.10;742.40;;;;;;4942780;29;20031;-88
2021/04/10 11:43:03;;;;;;;9.98;5.68;;;512.50;768.00;;;;;;4901441;29;20024;-90
2021/04/10 11:45:36;;;;;;;10.65;4.78;;;512.90;819.20;;;;;;4940072;29;20035;-90
2021/04/10 11:48:09;;;;;;;7.90;4.07;;;537.60;819.20;;;;;;4939290;29;20526;-90
2021/04/10 11:50:40;;;;;;;10.25;5.85;;;512.90;742.40;;;;;;4940276;29;20043;-90
2021/04/10 11:53:46;;;;;;;9.23;5.22;;;512.50;742.40;;;;;;4963609;28;20051;-90
2021/04/10 11:56:26;;;;;;;11.32;5.38;;;512.80;768.00;;;;;;4919044;28;20180;-90
2021/04/10 11:59:11;;;;;;;11.80;5.60;;;512.70;742.40;;;;;;4917509;29;20028;-89
2021/04/10 12:01:50;;;;;;;9.95;6.07;;;537.80;793.60;;;;;;4917003;29;20044;-90
2021/04/10 12:04:27;;;;;;;12.68;4.85;;;537.90;793.60;;;;;;4917293;29;20035;-90
2021/04/10 12:07:26;;;;;;;11.23;6.40;;;512.90;716.80;;;;;;4935426;29;20050;-89
2021/04/10 12:09:53;;;;;;;7.78;4.53;;;512.70;691.20;;;;;;4871190;29;20033;-90
2021/04/10 12:12:18;;;;;;;10.05;5.70;;;512.20;716.80;;;;;;4879007;29;20072;-79
2021/04/10 12:14:50;;;;;;;10.00;5.40;;;487.30;716.80;;;;;;4864085;29;20086;-87
2021/04/10 12:17:15;;;;;;;10.20;6.07;;;487.00;716.80;;;;;;4880484;29;20092;-87
2021/04/10 12:22:30;;;;;;;13.18;6.85;;;486.90;716.80;;;;;;4894600;29;20032;-85
2021/04/10 12:25:02;;;;;;;21.55;8.68;;;486.80;768.00;;;;;;4877619;29;20068;-86
2021/04/10 12:27:37;;;;;;;17.88;6.20;;;487.00;768.00;;;;;;4875954;29;20057;-87
2021/04/10 12:30:07;;;;;;;11.35;5.03;;;486.80;768.00;;;;;;4875399;29;20037;-85